WXM80 ListenWXM80 Stop

You find our weather info also at:

UK Metoffice

WeatherCloud

Weather Underground

Northeastern Weather Network

AWEKAS

Citizen Weather Observer Program (CWOP)

HAMweather, WeatherForYou, PWS Weather


Weather Underground History page Text

Daily Summary for May 14, 2017 Units:  Both    English   Metric
« Previous Day
Next Day »
Daily Weekly Monthly Yearly Custom
  High: Low: Average:
Temperature: 71.4 °F /  21.9 °C 45.3 °F /  7.4 °C 55.5 °F /  13.1 °C
Dew Point: 54.9 °F /  12.7 °C 44.2 °F /  6.8 °C 48.7 °F /  9.3 °C
Humidity: 98 % 49 % 80 %
Wind Speed: 12.8 mph /  20.6 km/h - 4.2 mph /  6.8 km/h
Wind Gust: 23.0 mph /  37 km/h - -
Wind:- - SW
Pressure: 29.73 in /  1006.7 hPa 29.51 in /  999.2 hPa -
Precipitation: 0.08 in /  2.03 mm    
Historical Graphs
 
 
Tabular Data for May 14, 2017
Time Temperature Dew Point Pressure Wind Wind Speed Wind Gust Humidity Rainfall Rate (Hourly)
00:03 46.6 °F /  8.1 °C 45.8 °F /  7.7 °C 29.73 in /  1006.7 hPa NNE 11.6 mph /  18.7 km/h 16.1 mph /  25.9 km/h 97 % 0.05 in /  1.27 mm
00:08 46.7 °F /  8.2 °C 46.2 °F /  7.9 °C 29.73 in /  1006.7 hPa NNE 10.6 mph /  17.1 km/h 17.0 mph /  27.4 km/h 98 % 0.05 in /  1.27 mm
00:13 46.7 °F /  8.2 °C 46.2 °F /  7.9 °C 29.72 in /  1006.3 hPa NNE 11.4 mph /  18.3 km/h 19.0 mph /  30.6 km/h 98 % 0.06 in /  1.52 mm
00:18 46.7 °F /  8.2 °C 46.2 °F /  7.9 °C 29.72 in /  1006.3 hPa NNE 9.9 mph /  15.9 km/h 15.0 mph /  24.1 km/h 98 % 0.06 in /  1.52 mm
00:23 46.8 °F /  8.2 °C 46.0 °F /  7.8 °C 29.72 in /  1006.3 hPa NE 12.8 mph /  20.6 km/h 13.8 mph /  22.2 km/h 97 % 0.05 in /  1.27 mm
00:29 46.8 °F /  8.2 °C 46.0 °F /  7.8 °C 29.72 in /  1006.3 hPa NNE 9.3 mph /  15 km/h 12.7 mph /  20.4 km/h 97 % 0.05 in /  1.27 mm
00:30 46.8 °F /  8.2 °C 46.0 °F /  7.8 °C 29.72 in /  1006.3 hPa North 7.5 mph /  12.1 km/h 15.0 mph /  24.1 km/h 97 % 0.05 in /  1.27 mm
00:35 46.8 °F /  8.2 °C 46.0 °F /  7.8 °C 29.71 in /  1006 hPa East 8.4 mph /  13.5 km/h 15.0 mph /  24.1 km/h 97 % 0.06 in /  1.52 mm
00:40 46.8 °F /  8.2 °C 46.0 °F /  7.8 °C 29.71 in /  1006 hPa NNE 9.7 mph /  15.6 km/h 23.0 mph /  37 km/h 97 % 0.05 in /  1.27 mm
00:45 46.8 °F /  8.2 °C 46.0 °F /  7.8 °C 29.71 in /  1006 hPa North 9.3 mph /  15 km/h 11.5 mph /  18.5 km/h 97 % 0.05 in /  1.27 mm
00:50 46.7 °F /  8.2 °C 45.9 °F /  7.7 °C 29.71 in /  1006 hPa ENE 9.7 mph /  15.6 km/h 15.0 mph /  24.1 km/h 97 % 0.04 in /  1.02 mm
00:55 46.6 °F /  8.1 °C 45.8 °F /  7.7 °C 29.70 in /  1005.6 hPa NNE 7.5 mph /  12.1 km/h 13.8 mph /  22.2 km/h 97 % 0.04 in /  1.02 mm
01:00 46.6 °F /  8.1 °C 45.8 °F /  7.7 °C 29.70 in /  1005.6 hPa NNE 7.0 mph /  11.3 km/h 12.0 mph /  19.3 km/h 97 % 0.03 in /  0.76 mm
01:05 46.7 °F /  8.2 °C 45.9 °F /  7.7 °C 29.70 in /  1005.6 hPa NNE 5.1 mph /  8.2 km/h 10.4 mph /  16.7 km/h 97 % 0.03 in /  0.76 mm
01:10 46.7 °F /  8.2 °C 45.9 °F /  7.7 °C 29.69 in /  1005.3 hPa ENE 7.7 mph /  12.4 km/h 13.8 mph /  22.2 km/h 97 % 0.03 in /  0.76 mm
01:15 46.7 °F /  8.2 °C 45.9 °F /  7.7 °C 29.69 in /  1005.3 hPa ENE 8.3 mph /  13.4 km/h 10.4 mph /  16.7 km/h 97 % 0.02 in /  0.51 mm
01:20 46.8 °F /  8.2 °C 46.0 °F /  7.8 °C 29.69 in /  1005.3 hPa ENE 6.7 mph /  10.8 km/h 11.5 mph /  18.5 km/h 97 % 0.02 in /  0.51 mm
01:21 46.7 °F /  8.2 °C 45.9 °F /  7.7 °C 29.68 in /  1005 hPa ENE 7.1 mph /  11.4 km/h 11.5 mph /  18.5 km/h 97 % 0.02 in /  0.51 mm
01:26 46.8 °F /  8.2 °C 46.0 °F /  7.8 °C 29.68 in /  1005 hPa NE 5.9 mph /  9.5 km/h 11.0 mph /  17.7 km/h 97 % 0.03 in /  0.76 mm
01:31 46.8 °F /  8.2 °C 46.0 °F /  7.8 °C 29.68 in /  1005 hPa NE 7.0 mph /  11.3 km/h 11.5 mph /  18.5 km/h 97 % 0.03 in /  0.76 mm
01:36 46.9 °F /  8.3 °C 46.1 °F /  7.8 °C 29.67 in /  1004.6 hPa ENE 5.0 mph /  8 km/h 10.0 mph /  16.1 km/h 97 % 0.00 in /  0 mm
01:41 46.9 °F /  8.3 °C 46.1 °F /  7.8 °C 29.67 in /  1004.6 hPa ENE 6.3 mph /  10.1 km/h 11.5 mph /  18.5 km/h 97 % 0.02 in /  0.51 mm
01:46 47.0 °F /  8.3 °C 46.2 °F /  7.9 °C 29.67 in /  1004.6 hPa ENE 10.1 mph /  16.3 km/h 13.8 mph /  22.2 km/h 97 % 0.01 in /  0.25 mm
01:51 47.0 °F /  8.3 °C 46.2 °F /  7.9 °C 29.66 in /  1004.3 hPa East 11.8 mph /  19 km/h 18.4 mph /  29.6 km/h 97 % 0.01 in /  0.25 mm
01:56 47.0 °F /  8.3 °C 46.2 °F /  7.9 °C 29.66 in /  1004.3 hPa NE 10.0 mph /  16.1 km/h 18.4 mph /  29.6 km/h 97 % 0.01 in /  0.25 mm
02:01 47.0 °F /  8.3 °C 46.2 °F /  7.9 °C 29.67 in /  1004.6 hPa North 5.7 mph /  9.2 km/h 11.0 mph /  17.7 km/h 97 % 0.01 in /  0.25 mm
02:06 47.0 °F /  8.3 °C 46.2 °F /  7.9 °C 29.67 in /  1004.6 hPa NNE 8.4 mph /  13.5 km/h 15.0 mph /  24.1 km/h 97 % 0.02 in /  0.51 mm
02:11 46.9 °F /  8.3 °C 46.1 °F /  7.8 °C 29.67 in /  1004.6 hPa NNE 8.7 mph /  14 km/h 15.0 mph /  24.1 km/h 97 % 0.03 in /  0.76 mm
02:16 46.9 °F /  8.3 °C 46.1 °F /  7.8 °C 29.67 in /  1004.6 hPa NE 8.2 mph /  13.2 km/h 11.5 mph /  18.5 km/h 97 % 0.03 in /  0.76 mm
02:21 46.8 °F /  8.2 °C 46.0 °F /  7.8 °C 29.67 in /  1004.6 hPa North 5.4 mph /  8.7 km/h 10.4 mph /  16.7 km/h 97 % 0.03 in /  0.76 mm
02:26 46.7 °F /  8.2 °C 45.9 °F /  7.7 °C 29.67 in /  1004.6 hPa North 6.6 mph /  10.6 km/h 11.5 mph /  18.5 km/h 97 % 0.02 in /  0.51 mm
02:31 46.5 °F /  8.1 °C 45.7 °F /  7.6 °C 29.67 in /  1004.6 hPa North 7.7 mph /  12.4 km/h 11.5 mph /  18.5 km/h 97 % 0.02 in /  0.51 mm
02:36 46.4 °F /  8 °C 45.6 °F /  7.6 °C 29.66 in /  1004.3 hPa NNE 5.2 mph /  8.4 km/h 11.5 mph /  18.5 km/h 97 % 0.02 in /  0.51 mm
02:41 46.2 °F /  7.9 °C 45.4 °F /  7.4 °C 29.67 in /  1004.6 hPa NNE 7.4 mph /  11.9 km/h 11.0 mph /  17.7 km/h 97 % 0.02 in /  0.51 mm
02:46 46.1 °F /  7.8 °C 45.3 °F /  7.4 °C 29.66 in /  1004.3 hPa NNE 9.1 mph /  14.6 km/h 12.7 mph /  20.4 km/h 97 % 0.02 in /  0.51 mm
02:51 45.9 °F /  7.7 °C 45.1 °F /  7.3 °C 29.66 in /  1004.3 hPa NE 8.4 mph /  13.5 km/h 19.6 mph /  31.5 km/h 97 % 0.02 in /  0.51 mm
02:57 45.7 °F /  7.6 °C 44.6 °F /  7 °C 29.66 in /  1004.3 hPa NE 10.7 mph /  17.2 km/h 19.6 mph /  31.5 km/h 96 % 0.02 in /  0.51 mm
03:02 45.6 °F /  7.6 °C 44.5 °F /  6.9 °C 29.66 in /  1004.3 hPa North 8.1 mph /  13 km/h 12.7 mph /  20.4 km/h 96 % 0.02 in /  0.51 mm
03:07 45.6 °F /  7.6 °C 44.5 °F /  6.9 °C 29.65 in /  1003.9 hPa NNE 9.1 mph /  14.6 km/h 16.1 mph /  25.9 km/h 96 % 0.01 in /  0.25 mm
03:12 45.5 °F /  7.5 °C 44.4 °F /  6.9 °C 29.65 in /  1003.9 hPa NNE 10.0 mph /  16.1 km/h 19.6 mph /  31.5 km/h 96 % 0.00 in /  0 mm
03:17 45.4 °F /  7.4 °C 44.6 °F /  7 °C 29.65 in /  1003.9 hPa North 11.7 mph /  18.8 km/h 16.1 mph /  25.9 km/h 97 % 0.00 in /  0 mm
03:22 45.4 °F /  7.4 °C 44.6 °F /  7 °C 29.65 in /  1003.9 hPa ENE 9.2 mph /  14.8 km/h 12.7 mph /  20.4 km/h 97 % 0.00 in /  0 mm
03:27 45.4 °F /  7.4 °C 44.6 °F /  7 °C 29.66 in /  1004.3 hPa North 7.0 mph /  11.3 km/h 13.8 mph /  22.2 km/h 97 % 0.00 in /  0 mm
03:32 45.4 °F /  7.4 °C 44.6 °F /  7 °C 29.66 in /  1004.3 hPa NNE 8.7 mph /  14 km/h 12.7 mph /  20.4 km/h 97 % 0.00 in /  0 mm
03:37 45.3 °F /  7.4 °C 44.5 °F /  6.9 °C 29.66 in /  1004.3 hPa North 8.0 mph /  12.9 km/h 13.8 mph /  22.2 km/h 97 % 0.00 in /  0 mm
03:42 45.3 °F /  7.4 °C 44.2 °F /  6.8 °C 29.65 in /  1003.9 hPa NNE 9.3 mph /  15 km/h 12.7 mph /  20.4 km/h 96 % 0.00 in /  0 mm
03:47 45.3 °F /  7.4 °C 44.5 °F /  6.9 °C 29.65 in /  1003.9 hPa NNE 8.4 mph /  13.5 km/h 11.5 mph /  18.5 km/h 97 % 0.00 in /  0 mm
03:48 45.3 °F /  7.4 °C 44.5 °F /  6.9 °C 29.65 in /  1003.9 hPa NNE 10.6 mph /  17.1 km/h 17.3 mph /  27.8 km/h 97 % 0.00 in /  0 mm
03:53 45.3 °F /  7.4 °C 44.2 °F /  6.8 °C 29.65 in /  1003.9 hPa NNE 8.9 mph /  14.3 km/h 16.1 mph /  25.9 km/h 96 % 0.00 in /  0 mm
03:58 45.3 °F /  7.4 °C 44.2 °F /  6.8 °C 29.65 in /  1003.9 hPa North 5.4 mph /  8.7 km/h 13.8 mph /  22.2 km/h 96 % 0.00 in /  0 mm
04:03 45.3 °F /  7.4 °C 44.2 °F /  6.8 °C 29.65 in /  1003.9 hPa NNW 5.9 mph /  9.5 km/h 11.5 mph /  18.5 km/h 96 % 0.00 in /  0 mm
04:08 45.3 °F /  7.4 °C 44.2 °F /  6.8 °C 29.65 in /  1003.9 hPa NNW 5.2 mph /  8.4 km/h 10.4 mph /  16.7 km/h 96 % 0.00 in /  0 mm
04:13 45.4 °F /  7.4 °C 44.3 °F /  6.8 °C 29.65 in /  1003.9 hPa NNE 4.9 mph /  7.9 km/h 11.5 mph /  18.5 km/h 96 % 0.00 in /  0 mm
04:18 45.4 °F /  7.4 °C 44.3 °F /  6.8 °C 29.65 in /  1003.9 hPa NE 6.9 mph /  11.1 km/h 11.5 mph /  18.5 km/h 96 % 0.00 in /  0 mm
04:23 45.3 °F /  7.4 °C 44.2 °F /  6.8 °C 29.65 in /  1003.9 hPa NE 3.8 mph /  6.1 km/h 10.4 mph /  16.7 km/h 96 % 0.00 in /  0 mm
04:28 45.4 °F /  7.4 °C 44.3 °F /  6.8 °C 29.65 in /  1003.9 hPa NNE 4.9 mph /  7.9 km/h 8.1 mph /  13 km/h 96 % 0.00 in /  0 mm
04:33 45.4 °F /  7.4 °C 44.3 °F /  6.8 °C 29.65 in /  1003.9 hPa NE 4.6 mph /  7.4 km/h 9.2 mph /  14.8 km/h 96 % 0.00 in /  0 mm
04:38 45.4 °F /  7.4 °C 44.3 °F /  6.8 °C 29.65 in /  1003.9 hPa North 5.9 mph /  9.5 km/h 10.4 mph /  16.7 km/h 96 % 0.00 in /  0 mm
04:43 45.4 °F /  7.4 °C 44.3 °F /  6.8 °C 29.65 in /  1003.9 hPa NNE 4.9 mph /  7.9 km/h 6.9 mph /  11.1 km/h 96 % 0.00 in /  0 mm
04:48 45.4 °F /  7.4 °C 44.3 °F /  6.8 °C 29.65 in /  1003.9 hPa NE 4.4 mph /  7.1 km/h 9.2 mph /  14.8 km/h 96 % 0.00 in /  0 mm
04:53 45.4 °F /  7.4 °C 44.3 °F /  6.8 °C 29.65 in /  1003.9 hPa ENE 7.1 mph /  11.4 km/h 11.0 mph /  17.7 km/h 96 % 0.00 in /  0 mm
04:58 45.4 °F /  7.4 °C 44.3 °F /  6.8 °C 29.65 in /  1003.9 hPa North 7.2 mph /  11.6 km/h 13.8 mph /  22.2 km/h 96 % 0.00 in /  0 mm
05:03 45.3 °F /  7.4 °C 44.2 °F /  6.8 °C 29.65 in /  1003.9 hPa North 4.9 mph /  7.9 km/h 6.9 mph /  11.1 km/h 96 % 0.00 in /  0 mm
05:08 45.3 °F /  7.4 °C 44.2 °F /  6.8 °C 29.65 in /  1003.9 hPa NNW 2.0 mph /  3.2 km/h 3.5 mph /  5.6 km/h 96 % 0.00 in /  0 mm
05:13 45.3 °F /  7.4 °C 44.2 °F /  6.8 °C 29.65 in /  1003.9 hPa WNW 4.5 mph /  7.2 km/h 7.0 mph /  11.3 km/h 96 % 0.00 in /  0 mm
05:18 45.3 °F /  7.4 °C 44.2 °F /  6.8 °C 29.65 in /  1003.9 hPa NW 1.4 mph /  2.3 km/h 9.2 mph /  14.8 km/h 96 % 0.00 in /  0 mm
05:23 45.3 °F /  7.4 °C 44.2 °F /  6.8 °C 29.65 in /  1003.9 hPa NW 2.0 mph /  3.2 km/h 5.8 mph /  9.3 km/h 96 % 0.00 in /  0 mm
05:28 45.3 °F /  7.4 °C 44.2 °F /  6.8 °C 29.65 in /  1003.9 hPa WNW 1.8 mph /  2.9 km/h 6.0 mph /  9.7 km/h 96 % 0.00 in /  0 mm
05:33 45.4 °F /  7.4 °C 44.3 °F /  6.8 °C 29.65 in /  1003.9 hPa North 5.0 mph /  8 km/h 8.0 mph /  12.9 km/h 96 % 0.00 in /  0 mm
05:38 45.4 °F /  7.4 °C 44.3 °F /  6.8 °C 29.65 in /  1003.9 hPa NE 4.8 mph /  7.7 km/h 6.9 mph /  11.1 km/h 96 % 0.00 in /  0 mm
05:43 45.4 °F /  7.4 °C 44.3 °F /  6.8 °C 29.65 in /  1003.9 hPa NNE 3.6 mph /  5.8 km/h 6.9 mph /  11.1 km/h 96 % 0.00 in /  0 mm
05:48 45.4 °F /  7.4 °C 44.3 °F /  6.8 °C 29.65 in /  1003.9 hPa NNE 4.8 mph /  7.7 km/h 10.4 mph /  16.7 km/h 96 % 0.00 in /  0 mm
05:51 45.4 °F /  7.4 °C 44.3 °F /  6.8 °C 29.65 in /  1003.9 hPa North 6.0 mph /  9.7 km/h 12.0 mph /  19.3 km/h 96 % 0.00 in /  0 mm
05:56 45.4 °F /  7.4 °C 44.3 °F /  6.8 °C 29.65 in /  1003.9 hPa North 5.0 mph /  8 km/h 10.0 mph /  16.1 km/h 96 % 0.00 in /  0 mm
06:01 45.4 °F /  7.4 °C 44.3 °F /  6.8 °C 29.65 in /  1003.9 hPa NNW 2.5 mph /  4 km/h 8.1 mph /  13 km/h 96 % 0.00 in /  0 mm
06:06 45.4 °F /  7.4 °C 44.3 °F /  6.8 °C 29.65 in /  1003.9 hPa NNW 3.0 mph /  4.8 km/h 9.0 mph /  14.5 km/h 96 % 0.00 in /  0 mm
06:11 45.5 °F /  7.5 °C 44.2 °F /  6.8 °C 29.65 in /  1003.9 hPa North 2.0 mph /  3.2 km/h 7.0 mph /  11.3 km/h 95 % 0.00 in /  0 mm
06:16 45.5 °F /  7.5 °C 44.2 °F /  6.8 °C 29.65 in /  1003.9 hPa NNE 3.2 mph /  5.1 km/h 7.0 mph /  11.3 km/h 95 % 0.00 in /  0 mm
06:18 45.5 °F /  7.5 °C 44.2 °F /  6.8 °C 29.65 in /  1003.9 hPa NNW 2.8 mph /  4.5 km/h 9.0 mph /  14.5 km/h 95 % 0.00 in /  0 mm
06:23 45.5 °F /  7.5 °C 44.2 °F /  6.8 °C 29.65 in /  1003.9 hPa NNW 2.6 mph /  4.2 km/h 6.9 mph /  11.1 km/h 95 % 0.00 in /  0 mm
06:28 45.6 °F /  7.6 °C 44.3 °F /  6.8 °C 29.66 in /  1004.3 hPa NNW 2.3 mph /  3.7 km/h 4.6 mph /  7.4 km/h 95 % 0.00 in /  0 mm
06:33 45.6 °F /  7.6 °C 44.3 °F /  6.8 °C 29.66 in /  1004.3 hPa North 5.2 mph /  8.4 km/h 9.0 mph /  14.5 km/h 95 % 0.00 in /  0 mm
06:38 45.7 °F /  7.6 °C 44.4 °F /  6.9 °C 29.66 in /  1004.3 hPa North 4.9 mph /  7.9 km/h 10.4 mph /  16.7 km/h 95 % 0.00 in /  0 mm
06:43 45.8 °F /  7.7 °C 44.4 °F /  6.9 °C 29.66 in /  1004.3 hPa NW 2.5 mph /  4 km/h 4.6 mph /  7.4 km/h 95 % 0.00 in /  0 mm
06:48 45.8 °F /  7.7 °C 44.4 °F /  6.9 °C 29.66 in /  1004.3 hPa North 2.8 mph /  4.5 km/h 8.1 mph /  13 km/h 95 % 0.00 in /  0 mm
06:53 45.9 °F /  7.7 °C 44.5 °F /  6.9 °C 29.66 in /  1004.3 hPa NW 5.4 mph /  8.7 km/h 10.4 mph /  16.7 km/h 95 % 0.00 in /  0 mm
06:58 45.9 °F /  7.7 °C 44.5 °F /  6.9 °C 29.67 in /  1004.6 hPa North 4.2 mph /  6.8 km/h 11.5 mph /  18.5 km/h 95 % 0.00 in /  0 mm
07:03 46.0 °F /  7.8 °C 44.4 °F /  6.9 °C 29.67 in /  1004.6 hPa North 3.6 mph /  5.8 km/h 5.8 mph /  9.3 km/h 94 % 0.00 in /  0 mm
07:08 46.1 °F /  7.8 °C 44.5 °F /  6.9 °C 29.67 in /  1004.6 hPa NNW 1.1 mph /  1.8 km/h 3.5 mph /  5.6 km/h 94 % 0.00 in /  0 mm
07:13 46.2 °F /  7.9 °C 44.6 °F /  7 °C 29.67 in /  1004.6 hPa North 2.6 mph /  4.2 km/h 8.0 mph /  12.9 km/h 94 % 0.00 in /  0 mm
07:18 46.3 °F /  7.9 °C 44.7 °F /  7.1 °C 29.67 in /  1004.6 hPa NW 3.0 mph /  4.8 km/h 4.6 mph /  7.4 km/h 94 % 0.00 in /  0 mm
07:23 46.4 °F /  8 °C 44.8 °F /  7.1 °C 29.67 in /  1004.6 hPa North 4.8 mph /  7.7 km/h 9.2 mph /  14.8 km/h 94 % 0.00 in /  0 mm
07:28 46.5 °F /  8.1 °C 44.9 °F /  7.2 °C 29.67 in /  1004.6 hPa NNE 2.6 mph /  4.2 km/h 6.9 mph /  11.1 km/h 94 % 0.00 in /  0 mm
07:33 46.6 °F /  8.1 °C 45.0 °F /  7.2 °C 29.67 in /  1004.6 hPa North 3.2 mph /  5.1 km/h 6.0 mph /  9.7 km/h 94 % 0.00 in /  0 mm
07:38 46.7 °F /  8.2 °C 45.1 °F /  7.3 °C 29.67 in /  1004.6 hPa WNW 4.8 mph /  7.7 km/h 8.1 mph /  13 km/h 94 % 0.00 in /  0 mm
07:43 46.8 °F /  8.2 °C 44.9 °F /  7.2 °C 29.67 in /  1004.6 hPa West 2.2 mph /  3.5 km/h 6.0 mph /  9.7 km/h 93 % 0.00 in /  0 mm
07:48 47.0 °F /  8.3 °C 45.1 °F /  7.3 °C 29.67 in /  1004.6 hPa NNW 4.4 mph /  7.1 km/h 5.0 mph /  8 km/h 93 % 0.00 in /  0 mm
07:53 47.2 °F /  8.4 °C 45.6 °F /  7.6 °C 29.66 in /  1004.3 hPa NNW 4.1 mph /  6.6 km/h 8.1 mph /  13 km/h 94 % 0.00 in /  0 mm
07:58 47.7 °F /  8.7 °C 46.1 °F /  7.8 °C 29.66 in /  1004.3 hPa WNW 5.5 mph /  8.9 km/h 13.8 mph /  22.2 km/h 94 % 0.00 in /  0 mm
08:04 48.0 °F /  8.9 °C 46.1 °F /  7.8 °C 29.66 in /  1004.3 hPa North 4.1 mph /  6.6 km/h 6.9 mph /  11.1 km/h 93 % 0.00 in /  0 mm
08:09 48.3 °F /  9.1 °C 46.1 °F /  7.8 °C 29.66 in /  1004.3 hPa North 5.8 mph /  9.3 km/h 10.4 mph /  16.7 km/h 92 % 0.00 in /  0 mm
08:14 48.4 °F /  9.1 °C 46.2 °F /  7.9 °C 29.66 in /  1004.3 hPa NNW 3.9 mph /  6.3 km/h 6.9 mph /  11.1 km/h 92 % 0.00 in /  0 mm
08:19 48.4 °F /  9.1 °C 45.9 °F /  7.7 °C 29.66 in /  1004.3 hPa NNW 1.7 mph /  2.7 km/h 6.9 mph /  11.1 km/h 91 % 0.00 in /  0 mm
08:24 48.6 °F /  9.2 °C 46.1 °F /  7.8 °C 29.66 in /  1004.3 hPa WNW 3.7 mph /  6 km/h 6.9 mph /  11.1 km/h 91 % 0.00 in /  0 mm
08:29 48.8 °F /  9.3 °C 46.6 °F /  8.1 °C 29.66 in /  1004.3 hPa NNW 4.2 mph /  6.8 km/h 9.2 mph /  14.8 km/h 92 % 0.00 in /  0 mm
08:34 49.2 °F /  9.6 °C 46.7 °F /  8.2 °C 29.66 in /  1004.3 hPa NNW 5.1 mph /  8.2 km/h 8.1 mph /  13 km/h 91 % 0.00 in /  0 mm
08:39 49.5 °F /  9.7 °C 47.0 °F /  8.3 °C 29.66 in /  1004.3 hPa WNW 2.4 mph /  3.9 km/h 6.0 mph /  9.7 km/h 91 % 0.00 in /  0 mm
08:44 49.8 °F /  9.9 °C 47.0 °F /  8.3 °C 29.66 in /  1004.3 hPa NNW 4.1 mph /  6.6 km/h 8.0 mph /  12.9 km/h 90 % 0.00 in /  0 mm
08:49 50.2 °F /  10.1 °C 47.4 °F /  8.6 °C 29.66 in /  1004.3 hPa NNW 2.0 mph /  3.2 km/h 8.1 mph /  13 km/h 90 % 0.00 in /  0 mm
08:54 50.5 °F /  10.3 °C 47.7 °F /  8.7 °C 29.66 in /  1004.3 hPa NW 3.3 mph /  5.3 km/h 6.9 mph /  11.1 km/h 90 % 0.00 in /  0 mm
08:59 51.0 °F /  10.6 °C 48.2 °F /  9 °C 29.66 in /  1004.3 hPa NW 5.0 mph /  8 km/h 10.4 mph /  16.7 km/h 90 % 0.00 in /  0 mm
09:04 51.3 °F /  10.7 °C 47.9 °F /  8.8 °C 29.66 in /  1004.3 hPa NNE 3.8 mph /  6.1 km/h 12.7 mph /  20.4 km/h 88 % 0.00 in /  0 mm
09:09 51.5 °F /  10.8 °C 48.1 °F /  8.9 °C 29.66 in /  1004.3 hPa WNW 2.5 mph /  4 km/h 9.2 mph /  14.8 km/h 88 % 0.00 in /  0 mm
09:14 51.9 °F /  11.1 °C 47.8 °F /  8.8 °C 29.66 in /  1004.3 hPa North 3.3 mph /  5.3 km/h 9.2 mph /  14.8 km/h 86 % 0.00 in /  0 mm
09:19 52.1 °F /  11.2 °C 47.7 °F /  8.7 °C 29.66 in /  1004.3 hPa NW 2.9 mph /  4.7 km/h 5.8 mph /  9.3 km/h 85 % 0.00 in /  0 mm
09:24 52.4 °F /  11.3 °C 48.0 °F /  8.9 °C 29.66 in /  1004.3 hPa NNW 2.4 mph /  3.9 km/h 6.9 mph /  11.1 km/h 85 % 0.00 in /  0 mm
09:29 52.8 °F /  11.6 °C 48.7 °F /  9.3 °C 29.65 in /  1003.9 hPa NNW 1.3 mph /  2.1 km/h 3.5 mph /  5.6 km/h 86 % 0.00 in /  0 mm
09:35 53.4 °F /  11.9 °C 49.3 °F /  9.6 °C 29.65 in /  1003.9 hPa West 2.6 mph /  4.2 km/h 3.5 mph /  5.6 km/h 86 % 0.00 in /  0 mm
09:40 53.9 °F /  12.2 °C 49.5 °F /  9.7 °C 29.65 in /  1003.9 hPa North 2.9 mph /  4.7 km/h 9.2 mph /  14.8 km/h 85 % 0.00 in /  0 mm
09:45 54.5 °F /  12.5 °C 49.4 °F /  9.7 °C 29.64 in /  1003.6 hPa NNE 5.0 mph /  8 km/h 6.9 mph /  11.1 km/h 83 % 0.00 in /  0 mm
09:50 55.1 °F /  12.8 °C 50.0 °F /  10 °C 29.65 in /  1003.9 hPa North 2.6 mph /  4.2 km/h 5.8 mph /  9.3 km/h 83 % 0.00 in /  0 mm
09:55 55.6 °F /  13.1 °C 49.5 °F /  9.7 °C 29.64 in /  1003.6 hPa NW 5.8 mph /  9.3 km/h 10.4 mph /  16.7 km/h 80 % 0.00 in /  0 mm
10:00 56.4 °F /  13.6 °C 50.6 °F /  10.3 °C 29.64 in /  1003.6 hPa NW 3.7 mph /  6 km/h 9.2 mph /  14.8 km/h 81 % 0.00 in /  0 mm
10:05 57.1 °F /  13.9 °C 51.3 °F /  10.7 °C 29.64 in /  1003.6 hPa West 4.3 mph /  6.9 km/h 7.0 mph /  11.3 km/h 81 % 0.00 in /  0 mm
10:10 57.7 °F /  14.3 °C 50.5 °F /  10.3 °C 29.64 in /  1003.6 hPa NW 5.7 mph /  9.2 km/h 10.4 mph /  16.7 km/h 77 % 0.00 in /  0 mm
10:15 58.3 °F /  14.6 °C 51.1 °F /  10.6 °C 29.64 in /  1003.6 hPa West 3.0 mph /  4.8 km/h 6.0 mph /  9.7 km/h 77 % 0.00 in /  0 mm
10:20 58.7 °F /  14.8 °C 51.2 °F /  10.7 °C 29.64 in /  1003.6 hPa North 3.0 mph /  4.8 km/h 11.5 mph /  18.5 km/h 76 % 0.00 in /  0 mm
10:25 59.1 °F /  15.1 °C 50.8 °F /  10.4 °C 29.64 in /  1003.6 hPa NNW 3.0 mph /  4.8 km/h 5.8 mph /  9.3 km/h 74 % 0.00 in /  0 mm
10:30 59.6 °F /  15.3 °C 51.3 °F /  10.7 °C 29.64 in /  1003.6 hPa NW 1.0 mph /  1.6 km/h 3.5 mph /  5.6 km/h 74 % 0.00 in /  0 mm
10:35 59.9 °F /  15.5 °C 50.8 °F /  10.4 °C 29.64 in /  1003.6 hPa NNW 2.0 mph /  3.2 km/h 4.6 mph /  7.4 km/h 72 % 0.00 in /  0 mm
10:40 60.2 °F /  15.7 °C 51.5 °F /  10.8 °C 29.64 in /  1003.6 hPa NW 1.8 mph /  2.9 km/h 5.8 mph /  9.3 km/h 73 % 0.00 in /  0 mm
10:45 60.5 °F /  15.8 °C 50.7 °F /  10.4 °C 29.64 in /  1003.6 hPa WNW 7.9 mph /  12.7 km/h 12.7 mph /  20.4 km/h 70 % 0.00 in /  0 mm
10:50 60.7 °F /  15.9 °C 52.0 °F /  11.1 °C 29.63 in /  1003.3 hPa North 0.9 mph /  1.4 km/h 3.5 mph /  5.6 km/h 73 % 0.00 in /  0 mm
10:55 61.4 °F /  16.3 °C 52.3 °F /  11.3 °C 29.63 in /  1003.3 hPa North 2.7 mph /  4.3 km/h 6.9 mph /  11.1 km/h 72 % 0.00 in /  0 mm
11:00 61.7 °F /  16.5 °C 50.6 °F /  10.3 °C 29.63 in /  1003.3 hPa WNW 4.5 mph /  7.2 km/h 9.2 mph /  14.8 km/h 67 % 0.00 in /  0 mm
11:05 62.2 °F /  16.8 °C 52.3 °F /  11.3 °C 29.63 in /  1003.3 hPa NW 3.0 mph /  4.8 km/h 6.9 mph /  11.1 km/h 70 % 0.00 in /  0 mm
11:10 62.5 °F /  16.9 °C 53.0 °F /  11.7 °C 29.63 in /  1003.3 hPa WNW 2.1 mph /  3.4 km/h 3.5 mph /  5.6 km/h 71 % 0.00 in /  0 mm
11:15 62.9 °F /  17.2 °C 52.6 °F /  11.4 °C 29.63 in /  1003.3 hPa SW 6.0 mph /  9.7 km/h 8.1 mph /  13 km/h 69 % 0.00 in /  0 mm
11:20 63.4 °F /  17.4 °C 53.0 °F /  11.7 °C 29.63 in /  1003.3 hPa NW 4.5 mph /  7.2 km/h 8.1 mph /  13 km/h 69 % 0.00 in /  0 mm
11:25 63.6 °F /  17.6 °C 51.6 °F /  10.9 °C 29.63 in /  1003.3 hPa NW 2.7 mph /  4.3 km/h 6.9 mph /  11.1 km/h 65 % 0.00 in /  0 mm
11:30 64.0 °F /  17.8 °C 52.4 °F /  11.3 °C 29.63 in /  1003.3 hPa NW 3.3 mph /  5.3 km/h 4.6 mph /  7.4 km/h 66 % 0.00 in /  0 mm
11:35 64.1 °F /  17.8 °C 52.1 °F /  11.2 °C 29.63 in /  1003.3 hPa WNW 2.1 mph /  3.4 km/h 6.9 mph /  11.1 km/h 65 % 0.00 in /  0 mm
11:40 64.5 °F /  18.1 °C 51.6 °F /  10.9 °C 29.63 in /  1003.3 hPa NNW 3.7 mph /  6 km/h 9.2 mph /  14.8 km/h 63 % 0.00 in /  0 mm
11:45 64.8 °F /  18.2 °C 52.3 °F /  11.3 °C 29.62 in /  1002.9 hPa NNW 3.6 mph /  5.8 km/h 8.1 mph /  13 km/h 64 % 0.00 in /  0 mm
11:50 65.3 °F /  18.5 °C 53.2 °F /  11.8 °C 29.62 in /  1002.9 hPa NW 2.2 mph /  3.5 km/h 4.6 mph /  7.4 km/h 65 % 0.00 in /  0 mm
11:55 65.6 °F /  18.7 °C 51.8 °F /  11 °C 29.62 in /  1002.9 hPa WNW 5.5 mph /  8.9 km/h 9.2 mph /  14.8 km/h 61 % 0.00 in /  0 mm
12:00 65.9 °F /  18.8 °C 54.2 °F /  12.3 °C 29.62 in /  1002.9 hPa NE 3.4 mph /  5.5 km/h 5.8 mph /  9.3 km/h 66 % 0.00 in /  0 mm
12:05 66.2 °F /  19 °C 53.2 °F /  11.8 °C 29.62 in /  1002.9 hPa NW 4.2 mph /  6.8 km/h 7.0 mph /  11.3 km/h 63 % 0.00 in /  0 mm
12:11 66.3 °F /  19.1 °C 52.0 °F /  11.1 °C 29.62 in /  1002.9 hPa NW 5.0 mph /  8 km/h 9.0 mph /  14.5 km/h 60 % 0.00 in /  0 mm
12:16 66.3 °F /  19.1 °C 51.5 °F /  10.8 °C 29.61 in /  1002.6 hPa NW 3.0 mph /  4.8 km/h 10.0 mph /  16.1 km/h 59 % 0.00 in /  0 mm
12:17 66.2 °F /  19 °C 52.3 °F /  11.3 °C 29.61 in /  1002.6 hPa WNW 5.0 mph /  8 km/h 11.5 mph /  18.5 km/h 61 % 0.00 in /  0 mm
12:22 66.4 °F /  19.1 °C 53.0 °F /  11.7 °C 29.61 in /  1002.6 hPa West 2.2 mph /  3.5 km/h 5.0 mph /  8 km/h 62 % 0.00 in /  0 mm
12:27 66.6 °F /  19.2 °C 52.3 °F /  11.3 °C 29.60 in /  1002.3 hPa WNW 5.7 mph /  9.2 km/h 10.4 mph /  16.7 km/h 60 % 0.00 in /  0 mm
12:32 66.8 °F /  19.3 °C 52.5 °F /  11.4 °C 29.60 in /  1002.3 hPa NNW 2.7 mph /  4.3 km/h 5.8 mph /  9.3 km/h 60 % 0.00 in /  0 mm
12:37 67.0 °F /  19.4 °C 51.7 °F /  10.9 °C 29.60 in /  1002.3 hPa NNW 2.3 mph /  3.7 km/h 5.8 mph /  9.3 km/h 58 % 0.00 in /  0 mm
12:42 67.2 °F /  19.6 °C 52.4 °F /  11.3 °C 29.60 in /  1002.3 hPa West 2.8 mph /  4.5 km/h 6.9 mph /  11.1 km/h 59 % 0.00 in /  0 mm
12:47 67.4 °F /  19.7 °C 51.2 °F /  10.7 °C 29.60 in /  1002.3 hPa North 5.9 mph /  9.5 km/h 9.2 mph /  14.8 km/h 56 % 0.00 in /  0 mm
12:52 67.6 °F /  19.8 °C 52.8 °F /  11.6 °C 29.60 in /  1002.3 hPa North 4.7 mph /  7.6 km/h 8.1 mph /  13 km/h 59 % 0.00 in /  0 mm
12:57 67.8 °F /  19.9 °C 54.3 °F /  12.4 °C 29.59 in /  1001.9 hPa NNW 2.9 mph /  4.7 km/h 6.9 mph /  11.1 km/h 62 % 0.00 in /  0 mm
13:02 68.1 °F /  20.1 °C 50.8 °F /  10.4 °C 29.59 in /  1001.9 hPa WNW 6.9 mph /  11.1 km/h 11.5 mph /  18.5 km/h 54 % 0.00 in /  0 mm
13:07 68.1 °F /  20.1 °C 51.3 °F /  10.7 °C 29.59 in /  1001.9 hPa West 4.9 mph /  7.9 km/h 8.0 mph /  12.9 km/h 55 % 0.00 in /  0 mm
13:13 68.3 °F /  20.2 °C 52.0 °F /  11.1 °C 29.58 in /  1001.6 hPa WNW 1.9 mph /  3.1 km/h 9.2 mph /  14.8 km/h 56 % 0.00 in /  0 mm
13:18 68.6 °F /  20.3 °C 52.3 °F /  11.3 °C 29.58 in /  1001.6 hPa SW 3.8 mph /  6.1 km/h 10.0 mph /  16.1 km/h 56 % 0.00 in /  0 mm
13:22 68.7 °F /  20.4 °C 50.9 °F /  10.5 °C 29.58 in /  1001.6 hPa WNW 5.5 mph /  8.9 km/h 8.1 mph /  13 km/h 53 % 0.00 in /  0 mm
13:27 68.8 °F /  20.4 °C 51.5 °F /  10.8 °C 29.58 in /  1001.6 hPa NW 2.1 mph /  3.4 km/h 4.6 mph /  7.4 km/h 54 % 0.00 in /  0 mm
13:32 69.0 °F /  20.6 °C 52.6 °F /  11.4 °C 29.58 in /  1001.6 hPa WNW 3.8 mph /  6.1 km/h 5.8 mph /  9.3 km/h 56 % 0.00 in /  0 mm
13:37 69.3 °F /  20.7 °C 52.9 °F /  11.6 °C 29.58 in /  1001.6 hPa North 1.2 mph /  1.9 km/h 3.5 mph /  5.6 km/h 56 % 0.00 in /  0 mm
13:42 69.7 °F /  20.9 °C 52.8 °F /  11.6 °C 29.58 in /  1001.6 hPa NNE 2.2 mph /  3.5 km/h 4.6 mph /  7.4 km/h 55 % 0.00 in /  0 mm
13:47 70.0 °F /  21.1 °C 53.1 °F /  11.7 °C 29.57 in /  1001.2 hPa NNW 0.8 mph /  1.3 km/h 3.5 mph /  5.6 km/h 55 % 0.00 in /  0 mm
13:52 70.4 °F /  21.3 °C 51.4 °F /  10.8 °C 29.57 in /  1001.2 hPa WNW 2.6 mph /  4.2 km/h 8.1 mph /  13 km/h 51 % 0.00 in /  0 mm
13:57 70.7 °F /  21.5 °C 52.2 °F /  11.2 °C 29.57 in /  1001.2 hPa West 2.3 mph /  3.7 km/h 4.6 mph /  7.4 km/h 52 % 0.00 in /  0 mm
14:02 70.8 °F /  21.6 °C 51.2 °F /  10.7 °C 29.56 in /  1000.9 hPa WNW 3.1 mph /  5 km/h 6.9 mph /  11.1 km/h 50 % 0.00 in /  0 mm
14:07 70.8 °F /  21.6 °C 51.8 °F /  11 °C 29.56 in /  1000.9 hPa WNW 3.5 mph /  5.6 km/h 6.9 mph /  11.1 km/h 51 % 0.00 in /  0 mm
14:12 71.0 °F /  21.7 °C 54.0 °F /  12.2 °C 29.56 in /  1000.9 hPa NW 4.4 mph /  7.1 km/h 7.0 mph /  11.3 km/h 55 % 0.00 in /  0 mm
14:17 71.2 °F /  21.8 °C 52.7 °F /  11.5 °C 29.56 in /  1000.9 hPa WNW 2.4 mph /  3.9 km/h 5.0 mph /  8 km/h 52 % 0.00 in /  0 mm
14:18 71.3 °F /  21.8 °C 52.2 °F /  11.2 °C 29.56 in /  1000.9 hPa WNW 1.7 mph /  2.7 km/h 4.6 mph /  7.4 km/h 51 % 0.00 in /  0 mm
14:23 71.4 °F /  21.9 °C 52.9 °F /  11.6 °C 29.56 in /  1000.9 hPa NNE 1.9 mph /  3.1 km/h 4.0 mph /  6.4 km/h 52 % 0.00 in /  0 mm
14:28 71.2 °F /  21.8 °C 51.1 °F /  10.6 °C 29.56 in /  1000.9 hPa WNW 1.2 mph /  1.9 km/h 5.8 mph /  9.3 km/h 49 % 0.00 in /  0 mm
14:33 71.2 °F /  21.8 °C 52.1 °F /  11.2 °C 29.55 in /  1000.6 hPa WNW 0.6 mph /  1 km/h 2.3 mph /  3.7 km/h 51 % 0.00 in /  0 mm
14:38 71.1 °F /  21.7 °C 52.6 °F /  11.4 °C 29.56 in /  1000.9 hPa NNW 1.5 mph /  2.4 km/h 3.5 mph /  5.6 km/h 52 % 0.00 in /  0 mm
14:43 70.7 °F /  21.5 °C 52.2 °F /  11.2 °C 29.55 in /  1000.6 hPa NW 1.4 mph /  2.3 km/h 3.5 mph /  5.6 km/h 52 % 0.00 in /  0 mm
14:48 70.1 °F /  21.2 °C 51.1 °F /  10.6 °C 29.55 in /  1000.6 hPa ENE 1.8 mph /  2.9 km/h 5.8 mph /  9.3 km/h 51 % 0.00 in /  0 mm
14:54 69.6 °F /  20.9 °C 51.2 °F /  10.7 °C 29.55 in /  1000.6 hPa North 0.1 mph /  0.2 km/h 2.3 mph /  3.7 km/h 52 % 0.00 in /  0 mm
14:59 69.0 °F /  20.6 °C 50.6 °F /  10.3 °C 29.55 in /  1000.6 hPa North 1.1 mph /  1.8 km/h 3.5 mph /  5.6 km/h 52 % 0.00 in /  0 mm
15:04 68.5 °F /  20.3 °C 51.7 °F /  10.9 °C 29.54 in /  1000.2 hPa North 0.5 mph /  0.8 km/h 2.3 mph /  3.7 km/h 55 % 0.00 in /  0 mm
15:09 68.2 °F /  20.1 °C 49.9 °F /  9.9 °C 29.54 in /  1000.2 hPa WNW 1.2 mph /  1.9 km/h 3.5 mph /  5.6 km/h 52 % 0.00 in /  0 mm
15:14 68.0 °F /  20 °C 50.2 °F /  10.1 °C 29.53 in /  999.9 hPa WSW 1.5 mph /  2.4 km/h 5.0 mph /  8 km/h 53 % 0.00 in /  0 mm
15:19 67.8 °F /  19.9 °C 51.5 °F /  10.8 °C 29.53 in /  999.9 hPa West 0.4 mph /  0.6 km/h 2.3 mph /  3.7 km/h 56 % 0.00 in /  0 mm
15:24 67.6 °F /  19.8 °C 50.9 °F /  10.5 °C 29.53 in /  999.9 hPa West 1.8 mph /  2.9 km/h 3.5 mph /  5.6 km/h 55 % 0.00 in /  0 mm
15:26 67.6 °F /  19.8 °C 51.3 °F /  10.7 °C 29.53 in /  999.9 hPa West 1.4 mph /  2.3 km/h 2.3 mph /  3.7 km/h 56 % 0.00 in /  0 mm
15:31 67.3 °F /  19.6 °C 50.6 °F /  10.3 °C 29.53 in /  999.9 hPa West 1.6 mph /  2.6 km/h 4.6 mph /  7.4 km/h 55 % 0.00 in /  0 mm
15:36 67.0 °F /  19.4 °C 50.3 °F /  10.2 °C 29.53 in /  999.9 hPa SW 4.8 mph /  7.7 km/h 10.4 mph /  16.7 km/h 55 % 0.00 in /  0 mm
15:41 66.6 °F /  19.2 °C 50.9 °F /  10.5 °C 29.53 in /  999.9 hPa WSW 7.5 mph /  12.1 km/h 12.7 mph /  20.4 km/h 57 % 0.00 in /  0 mm
15:46 66.0 °F /  18.9 °C 52.1 °F /  11.2 °C 29.54 in /  1000.2 hPa WSW 2.0 mph /  3.2 km/h 15.0 mph /  24.1 km/h 61 % 0.00 in /  0 mm
15:51 65.4 °F /  18.6 °C 52.9 °F /  11.6 °C 29.54 in /  1000.2 hPa WSW 5.0 mph /  8 km/h 17.0 mph /  27.4 km/h 64 % 0.00 in /  0 mm
15:56 64.3 °F /  17.9 °C 52.2 °F /  11.2 °C 29.54 in /  1000.2 hPa WSW 8.0 mph /  12.9 km/h 14.0 mph /  22.5 km/h 65 % 0.00 in /  0 mm
16:01 63.0 °F /  17.2 °C 52.7 °F /  11.5 °C 29.53 in /  999.9 hPa West 4.8 mph /  7.7 km/h 6.9 mph /  11.1 km/h 69 % 0.00 in /  0 mm
16:06 62.5 °F /  16.9 °C 53.0 °F /  11.7 °C 29.53 in /  999.9 hPa SW 3.6 mph /  5.8 km/h 9.2 mph /  14.8 km/h 71 % 0.00 in /  0 mm
16:11 62.2 °F /  16.8 °C 53.4 °F /  11.9 °C 29.52 in /  999.5 hPa West 3.3 mph /  5.3 km/h 5.8 mph /  9.3 km/h 73 % 0.00 in /  0 mm
16:16 62.2 °F /  16.8 °C 54.9 °F /  12.7 °C 29.52 in /  999.5 hPa WSW 1.4 mph /  2.3 km/h 3.5 mph /  5.6 km/h 77 % 0.00 in /  0 mm
16:21 62.5 °F /  16.9 °C 54.1 °F /  12.3 °C 29.52 in /  999.5 hPa WSW 3.6 mph /  5.8 km/h 9.2 mph /  14.8 km/h 74 % 0.00 in /  0 mm
16:26 62.9 °F /  17.2 °C 54.5 °F /  12.5 °C 29.51 in /  999.2 hPa WSW 3.0 mph /  4.8 km/h 4.0 mph /  6.4 km/h 74 % 0.00 in /  0 mm
16:28 63.1 °F /  17.3 °C 54.3 °F /  12.4 °C 29.51 in /  999.2 hPa West 4.4 mph /  7.1 km/h 8.1 mph /  13 km/h 73 % 0.00 in /  0 mm
16:33 63.6 °F /  17.6 °C 54.0 °F /  12.2 °C 29.51 in /  999.2 hPa WSW 3.8 mph /  6.1 km/h 9.2 mph /  14.8 km/h 71 % 0.00 in /  0 mm
16:38 64.1 °F /  17.8 °C 53.3 °F /  11.8 °C 29.51 in /  999.2 hPa West 1.4 mph /  2.3 km/h 3.5 mph /  5.6 km/h 68 % 0.00 in /  0 mm
16:43 64.6 °F /  18.1 °C 53.0 °F /  11.7 °C 29.52 in /  999.5 hPa SW 4.6 mph /  7.4 km/h 7.0 mph /  11.3 km/h 66 % 0.00 in /  0 mm
16:48 65.0 °F /  18.3 °C 53.4 °F /  11.9 °C 29.52 in /  999.5 hPa WNW 3.1 mph /  5 km/h 6.0 mph /  9.7 km/h 66 % 0.00 in /  0 mm
16:53 65.4 °F /  18.6 °C 52.0 °F /  11.1 °C 29.52 in /  999.5 hPa WNW 4.3 mph /  6.9 km/h 8.1 mph /  13 km/h 62 % 0.00 in /  0 mm
16:58 65.8 °F /  18.8 °C 52.4 °F /  11.3 °C 29.52 in /  999.5 hPa NW 6.9 mph /  11.1 km/h 10.0 mph /  16.1 km/h 62 % 0.00 in /  0 mm
16:59 65.8 °F /  18.8 °C 52.4 °F /  11.3 °C 29.52 in /  999.5 hPa NW 3.8 mph /  6.1 km/h 10.4 mph /  16.7 km/h 62 % 0.00 in /  0 mm
17:04 65.9 °F /  18.8 °C 52.1 °F /  11.2 °C 29.52 in /  999.5 hPa WSW 4.1 mph /  6.6 km/h 11.5 mph /  18.5 km/h 61 % 0.00 in /  0 mm
17:09 65.9 °F /  18.8 °C 52.9 °F /  11.6 °C 29.52 in /  999.5 hPa West 1.3 mph /  2.1 km/h 3.5 mph /  5.6 km/h 63 % 0.00 in /  0 mm
17:14 65.9 °F /  18.8 °C 52.5 °F /  11.4 °C 29.52 in /  999.5 hPa WSW 1.6 mph /  2.6 km/h 7.0 mph /  11.3 km/h 62 % 0.00 in /  0 mm
17:19 65.7 °F /  18.7 °C 52.8 °F /  11.6 °C 29.53 in /  999.9 hPa WSW 3.2 mph /  5.1 km/h 4.6 mph /  7.4 km/h 63 % 0.00 in /  0 mm
17:25 65.5 °F /  18.6 °C 53.0 °F /  11.7 °C 29.53 in /  999.9 hPa WNW 2.0 mph /  3.2 km/h 6.9 mph /  11.1 km/h 64 % 0.00 in /  0 mm
17:30 65.0 °F /  18.3 °C 53.4 °F /  11.9 °C 29.55 in /  1000.6 hPa SW 11.7 mph /  18.8 km/h 12.0 mph /  19.3 km/h 66 % 0.00 in /  0 mm
17:35 63.7 °F /  17.6 °C 54.1 °F /  12.3 °C 29.54 in /  1000.2 hPa NW 2.8 mph /  4.5 km/h 9.2 mph /  14.8 km/h 71 % 0.02 in /  0.51 mm
17:40 62.7 °F /  17.1 °C 53.9 °F /  12.2 °C 29.54 in /  1000.2 hPa WNW 5.4 mph /  8.7 km/h 10.4 mph /  16.7 km/h 73 % 0.02 in /  0.51 mm
17:45 61.6 °F /  16.4 °C 53.2 °F /  11.8 °C 29.54 in /  1000.2 hPa West 3.4 mph /  5.5 km/h 11.5 mph /  18.5 km/h 74 % 0.02 in /  0.51 mm
17:50 60.9 °F /  16.1 °C 53.3 °F /  11.8 °C 29.54 in /  1000.2 hPa WNW 4.2 mph /  6.8 km/h 8.1 mph /  13 km/h 76 % 0.02 in /  0.51 mm
17:55 60.1 °F /  15.6 °C 52.9 °F /  11.6 °C 29.55 in /  1000.6 hPa WNW 4.6 mph /  7.4 km/h 11.5 mph /  18.5 km/h 77 % 0.02 in /  0.51 mm
18:00 59.5 °F /  15.3 °C 53.0 °F /  11.7 °C 29.55 in /  1000.6 hPa NW 3.8 mph /  6.1 km/h 5.8 mph /  9.3 km/h 79 % 0.02 in /  0.51 mm
18:05 58.9 °F /  14.9 °C 53.1 °F /  11.7 °C 29.54 in /  1000.2 hPa NNE 2.9 mph /  4.7 km/h 9.2 mph /  14.8 km/h 81 % 0.02 in /  0.51 mm
18:06 58.8 °F /  14.9 °C 52.6 °F /  11.4 °C 29.54 in /  1000.2 hPa NNE 2.8 mph /  4.5 km/h 7.0 mph /  11.3 km/h 80 % 0.02 in /  0.51 mm
18:11 58.3 °F /  14.6 °C 52.2 °F /  11.2 °C 29.54 in /  1000.2 hPa NW 2.3 mph /  3.7 km/h 4.6 mph /  7.4 km/h 80 % 0.02 in /  0.51 mm
18:16 58.0 °F /  14.4 °C 52.2 °F /  11.2 °C 29.54 in /  1000.2 hPa North 2.8 mph /  4.5 km/h 4.0 mph /  6.4 km/h 81 % 0.02 in /  0.51 mm
18:21 58.0 °F /  14.4 °C 52.5 °F /  11.4 °C 29.54 in /  1000.2 hPa NNW 1.3 mph /  2.1 km/h 3.0 mph /  4.8 km/h 82 % 0.02 in /  0.51 mm
18:26 58.0 °F /  14.4 °C 52.2 °F /  11.2 °C 29.54 in /  1000.2 hPa WSW 3.2 mph /  5.1 km/h 6.9 mph /  11.1 km/h 81 % 0.02 in /  0.51 mm
18:31 58.0 °F /  14.4 °C 52.2 °F /  11.2 °C 29.54 in /  1000.2 hPa NW 4.1 mph /  6.6 km/h 6.9 mph /  11.1 km/h 81 % 0.01 in /  0.25 mm
18:36 57.9 °F /  14.4 °C 51.8 °F /  11 °C 29.54 in /  1000.2 hPa WNW 2.9 mph /  4.7 km/h 4.6 mph /  7.4 km/h 80 % 0.00 in /  0 mm
18:41 57.8 °F /  14.3 °C 51.7 °F /  10.9 °C 29.54 in /  1000.2 hPa WNW 0.4 mph /  0.6 km/h 1.2 mph /  1.9 km/h 80 % 0.00 in /  0 mm
18:46 57.7 °F /  14.3 °C 51.6 °F /  10.9 °C 29.54 in /  1000.2 hPa NNW 1.2 mph /  1.9 km/h 3.0 mph /  4.8 km/h 80 % 0.00 in /  0 mm
18:51 57.5 °F /  14.2 °C 51.0 °F /  10.6 °C 29.53 in /  999.9 hPa NW 1.4 mph /  2.3 km/h 3.5 mph /  5.6 km/h 79 % 0.00 in /  0 mm
18:56 57.2 °F /  14 °C 51.1 °F /  10.6 °C 29.53 in /  999.9 hPa NNW 0.7 mph /  1.1 km/h 2.0 mph /  3.2 km/h 80 % 0.00 in /  0 mm
19:01 57.1 °F /  13.9 °C 51.0 °F /  10.6 °C 29.54 in /  1000.2 hPa WNW 1.0 mph /  1.6 km/h 3.5 mph /  5.6 km/h 80 % 0.00 in /  0 mm
19:06 56.9 °F /  13.8 °C 50.8 °F /  10.4 °C 29.54 in /  1000.2 hPa NNW 0.2 mph /  0.3 km/h 1.2 mph /  1.9 km/h 80 % 0.00 in /  0 mm
19:11 56.8 °F /  13.8 °C 51.0 °F /  10.6 °C 29.53 in /  999.9 hPa NW 0.6 mph /  1 km/h 3.5 mph /  5.6 km/h 81 % 0.00 in /  0 mm
19:16 56.7 °F /  13.7 °C 50.9 °F /  10.5 °C 29.53 in /  999.9 hPa NW 0.3 mph /  0.5 km/h 1.2 mph /  1.9 km/h 81 % 0.00 in /  0 mm
19:21 56.6 °F /  13.7 °C 50.8 °F /  10.4 °C 29.53 in /  999.9 hPa WNW 0.3 mph /  0.5 km/h 3.5 mph /  5.6 km/h 81 % 0.00 in /  0 mm
19:26 56.5 °F /  13.6 °C 51.1 °F /  10.6 °C 29.53 in /  999.9 hPa WNW 0.1 mph /  0.2 km/h 1.2 mph /  1.9 km/h 82 % 0.00 in /  0 mm
19:31 56.4 °F /  13.6 °C 51.0 °F /  10.6 °C 29.54 in /  1000.2 hPa NW 2.0 mph /  3.2 km/h 3.0 mph /  4.8 km/h 82 % 0.00 in /  0 mm
19:36 56.3 °F /  13.5 °C 50.9 °F /  10.5 °C 29.54 in /  1000.2 hPa NW 0.2 mph /  0.3 km/h 3.5 mph /  5.6 km/h 82 % 0.00 in /  0 mm
19:41 56.3 °F /  13.5 °C 50.9 °F /  10.5 °C 29.54 in /  1000.2 hPa WNW 1.5 mph /  2.4 km/h 4.0 mph /  6.4 km/h 82 % 0.00 in /  0 mm
19:47 56.2 °F /  13.4 °C 50.8 °F /  10.4 °C 29.53 in /  999.9 hPa WNW 1.0 mph /  1.6 km/h 3.5 mph /  5.6 km/h 82 % 0.00 in /  0 mm
19:52 56.1 °F /  13.4 °C 50.7 °F /  10.4 °C 29.53 in /  999.9 hPa WNW 0.6 mph /  1 km/h 2.3 mph /  3.7 km/h 82 % 0.00 in /  0 mm
19:57 56.0 °F /  13.3 °C 50.6 °F /  10.3 °C 29.53 in /  999.9 hPa WNW 0.5 mph /  0.8 km/h 2.3 mph /  3.7 km/h 82 % 0.00 in /  0 mm
20:02 55.9 °F /  13.3 °C 50.5 °F /  10.3 °C 29.53 in /  999.9 hPa WNW 0.7 mph /  1.1 km/h 3.0 mph /  4.8 km/h 82 % 0.00 in /  0 mm
20:07 55.9 °F /  13.3 °C 50.8 °F /  10.4 °C 29.53 in /  999.9 hPa Calm   3.0 mph /  4.8 km/h 83 % 0.00 in /  0 mm
20:12 55.7 °F /  13.2 °C 50.6 °F /  10.3 °C 29.54 in /  1000.2 hPa WNW 1.5 mph /  2.4 km/h 3.5 mph /  5.6 km/h 83 % 0.00 in /  0 mm
20:17 55.6 °F /  13.1 °C 50.5 °F /  10.3 °C 29.53 in /  999.9 hPa WNW 0.2 mph /  0.3 km/h 2.3 mph /  3.7 km/h 83 % 0.00 in /  0 mm
20:22 55.5 °F /  13.1 °C 50.4 °F /  10.2 °C 29.53 in /  999.9 hPa Calm   1.2 mph /  1.9 km/h 83 % 0.00 in /  0 mm
20:27 55.4 °F /  13 °C 50.3 °F /  10.2 °C 29.53 in /  999.9 hPa WNW 0.3 mph /  0.5 km/h 1.2 mph /  1.9 km/h 83 % 0.00 in /  0 mm
20:32 55.4 °F /  13 °C 50.3 °F /  10.2 °C 29.53 in /  999.9 hPa WNW 0.5 mph /  0.8 km/h 2.3 mph /  3.7 km/h 83 % 0.00 in /  0 mm
20:37 55.3 °F /  12.9 °C 50.2 °F /  10.1 °C 29.53 in /  999.9 hPa Calm     83 % 0.00 in /  0 mm
20:42 55.2 °F /  12.9 °C 50.1 °F /  10.1 °C 29.53 in /  999.9 hPa WNW 1.5 mph /  2.4 km/h 2.3 mph /  3.7 km/h 83 % 0.00 in /  0 mm
20:47 55.1 °F /  12.8 °C 50.0 °F /  10 °C 29.54 in /  1000.2 hPa WNW 0.7 mph /  1.1 km/h 1.2 mph /  1.9 km/h 83 % 0.00 in /  0 mm
20:52 55.0 °F /  12.8 °C 49.6 °F /  9.8 °C 29.54 in /  1000.2 hPa WNW 0.3 mph /  0.5 km/h 2.3 mph /  3.7 km/h 82 % 0.00 in /  0 mm
20:57 54.9 °F /  12.7 °C 49.5 °F /  9.7 °C 29.53 in /  999.9 hPa NNW 2.2 mph /  3.5 km/h 2.3 mph /  3.7 km/h 82 % 0.00 in /  0 mm
21:02 54.9 °F /  12.7 °C 49.5 °F /  9.7 °C 29.53 in /  999.9 hPa NW 0.4 mph /  0.6 km/h 4.6 mph /  7.4 km/h 82 % 0.00 in /  0 mm
21:07 54.8 °F /  12.7 °C 49.4 °F /  9.7 °C 29.54 in /  1000.2 hPa NW 0.2 mph /  0.3 km/h 1.2 mph /  1.9 km/h 82 % 0.00 in /  0 mm
21:12 54.8 °F /  12.7 °C 49.4 °F /  9.7 °C 29.54 in /  1000.2 hPa NW 0.3 mph /  0.5 km/h 1.0 mph /  1.6 km/h 82 % 0.00 in /  0 mm
21:17 54.8 °F /  12.7 °C 49.4 °F /  9.7 °C 29.54 in /  1000.2 hPa NW 0.2 mph /  0.3 km/h 1.2 mph /  1.9 km/h 82 % 0.00 in /  0 mm
21:22 54.7 °F /  12.6 °C 49.3 °F /  9.6 °C 29.55 in /  1000.6 hPa NW 0.8 mph /  1.3 km/h 2.3 mph /  3.7 km/h 82 % 0.00 in /  0 mm
21:27 54.7 °F /  12.6 °C 49.3 °F /  9.6 °C 29.55 in /  1000.6 hPa Calm     82 % 0.00 in /  0 mm
21:33 54.6 °F /  12.6 °C 49.2 °F /  9.6 °C 29.55 in /  1000.6 hPa WNW 0.1 mph /  0.2 km/h 1.2 mph /  1.9 km/h 82 % 0.00 in /  0 mm
21:38 54.5 °F /  12.5 °C 49.1 °F /  9.5 °C 29.55 in /  1000.6 hPa WSW 1.5 mph /  2.4 km/h 6.9 mph /  11.1 km/h 82 % 0.00 in /  0 mm
21:43 54.4 °F /  12.4 °C 48.7 °F /  9.3 °C 29.55 in /  1000.6 hPa WSW 3.6 mph /  5.8 km/h 9.2 mph /  14.8 km/h 81 % 0.00 in /  0 mm
21:48 54.2 °F /  12.3 °C 47.8 °F /  8.8 °C 29.55 in /  1000.6 hPa NW 6.7 mph /  10.8 km/h 11.5 mph /  18.5 km/h 79 % 0.00 in /  0 mm
21:53 54.3 °F /  12.4 °C 46.9 °F /  8.3 °C 29.55 in /  1000.6 hPa WNW 5.1 mph /  8.2 km/h 11.5 mph /  18.5 km/h 76 % 0.00 in /  0 mm
21:54 54.4 °F /  12.4 °C 47.0 °F /  8.3 °C 29.55 in /  1000.6 hPa West 3.7 mph /  6 km/h 9.2 mph /  14.8 km/h 76 % 0.00 in /  0 mm
21:59 54.6 °F /  12.6 °C 46.5 °F /  8.1 °C 29.55 in /  1000.6 hPa WNW 5.0 mph /  8 km/h 12.7 mph /  20.4 km/h 74 % 0.00 in /  0 mm
22:04 54.9 °F /  12.7 °C 46.0 °F /  7.8 °C 29.55 in /  1000.6 hPa WNW 9.1 mph /  14.6 km/h 12.7 mph /  20.4 km/h 72 % 0.00 in /  0 mm
22:09 55.2 °F /  12.9 °C 46.7 °F /  8.2 °C 29.56 in /  1000.9 hPa West 7.4 mph /  11.9 km/h 11.5 mph /  18.5 km/h 73 % 0.00 in /  0 mm
22:14 55.4 °F /  13 °C 46.5 °F /  8.1 °C 29.56 in /  1000.9 hPa NNW 7.3 mph /  11.7 km/h 12.7 mph /  20.4 km/h 72 % 0.00 in /  0 mm
22:19 55.5 °F /  13.1 °C 46.6 °F /  8.1 °C 29.56 in /  1000.9 hPa NW 6.4 mph /  10.3 km/h 15.0 mph /  24.1 km/h 72 % 0.00 in /  0 mm
22:24 55.7 °F /  13.2 °C 46.4 °F /  8 °C 29.55 in /  1000.6 hPa WSW 6.3 mph /  10.1 km/h 9.2 mph /  14.8 km/h 71 % 0.00 in /  0 mm
22:29 55.7 °F /  13.2 °C 46.4 °F /  8 °C 29.56 in /  1000.9 hPa NW 3.0 mph /  4.8 km/h 12.7 mph /  20.4 km/h 71 % 0.00 in /  0 mm
22:34 55.7 °F /  13.2 °C 46.4 °F /  8 °C 29.56 in /  1000.9 hPa West 6.4 mph /  10.3 km/h 11.5 mph /  18.5 km/h 71 % 0.00 in /  0 mm
22:39 55.7 °F /  13.2 °C 46.8 °F /  8.2 °C 29.56 in /  1000.9 hPa NNW 7.1 mph /  11.4 km/h 10.4 mph /  16.7 km/h 72 % 0.00 in /  0 mm
22:44 55.7 °F /  13.2 °C 46.8 °F /  8.2 °C 29.56 in /  1000.9 hPa WSW 3.0 mph /  4.8 km/h 15.0 mph /  24.1 km/h 72 % 0.00 in /  0 mm
22:49 55.7 °F /  13.2 °C 46.8 °F /  8.2 °C 29.56 in /  1000.9 hPa NW 5.7 mph /  9.2 km/h 10.4 mph /  16.7 km/h 72 % 0.00 in /  0 mm
22:54 55.6 °F /  13.1 °C 46.7 °F /  8.2 °C 29.56 in /  1000.9 hPa NW 2.1 mph /  3.4 km/h 9.2 mph /  14.8 km/h 72 % 0.00 in /  0 mm
23:00 55.5 °F /  13.1 °C 46.2 °F /  7.9 °C 29.56 in /  1000.9 hPa WSW 6.3 mph /  10.1 km/h 12.7 mph /  20.4 km/h 71 % 0.00 in /  0 mm
23:05 55.5 °F /  13.1 °C 46.2 °F /  7.9 °C 29.56 in /  1000.9 hPa WNW 1.8 mph /  2.9 km/h 9.2 mph /  14.8 km/h 71 % 0.00 in /  0 mm
23:10 55.4 °F /  13 °C 46.2 °F /  7.9 °C 29.56 in /  1000.9 hPa WNW 7.1 mph /  11.4 km/h 9.2 mph /  14.8 km/h 71 % 0.00 in /  0 mm
23:15 55.3 °F /  12.9 °C 45.7 °F /  7.6 °C 29.56 in /  1000.9 hPa NW 7.4 mph /  11.9 km/h 12.7 mph /  20.4 km/h 70 % 0.00 in /  0 mm
23:20 55.3 °F /  12.9 °C 46.1 °F /  7.8 °C 29.56 in /  1000.9 hPa NNW 4.6 mph /  7.4 km/h 9.2 mph /  14.8 km/h 71 % 0.00 in /  0 mm
23:25 55.2 °F /  12.9 °C 46.0 °F /  7.8 °C 29.56 in /  1000.9 hPa WNW 6.0 mph /  9.7 km/h 10.4 mph /  16.7 km/h 71 % 0.00 in /  0 mm
23:30 55.1 °F /  12.8 °C 46.2 °F /  7.9 °C 29.56 in /  1000.9 hPa West 2.8 mph /  4.5 km/h 11.5 mph /  18.5 km/h 72 % 0.00 in /  0 mm
23:35 55.1 °F /  12.8 °C 46.2 °F /  7.9 °C 29.56 in /  1000.9 hPa WNW 3.6 mph /  5.8 km/h 9.2 mph /  14.8 km/h 72 % 0.00 in /  0 mm
23:40 55.0 °F /  12.8 °C 45.8 °F /  7.7 °C 29.56 in /  1000.9 hPa West 4.9 mph /  7.9 km/h 13.0 mph /  20.9 km/h 71 % 0.00 in /  0 mm
23:45 55.0 °F /  12.8 °C 45.8 °F /  7.7 °C 29.56 in /  1000.9 hPa West 4.7 mph /  7.6 km/h 17.3 mph /  27.8 km/h 71 % 0.00 in /  0 mm
23:50 54.9 °F /  12.7 °C 45.7 °F /  7.6 °C 29.56 in /  1000.9 hPa WSW 5.3 mph /  8.5 km/h 9.0 mph /  14.5 km/h 71 % 0.00 in /  0 mm
23:55 54.9 °F /  12.7 °C 45.3 °F /  7.4 °C 29.56 in /  1000.9 hPa WNW 5.8 mph /  9.3 km/h 11.5 mph /  18.5 km/h 70 % 0.00 in /  0 mm
Crab Meadow Weather
Compliments of Weather Underground - 3 mb

Script developed by  Jim McMurry - jmcmurry@mwt.net Adapted for the template by  Wim van der Kuil - Leuven-Template.eu

Weather Terms: Outlook - A hazardous weather outlook is issued daily to indicate that a hazardous weather or hydrologic event may occur in the next several days. The outlook will include information about potential severe thunderstorms , heavy rain or flooding, winter weather, extremes of heat or cold, etc., that may develop over the next 7 days with an emphasis on the first 24 hours of the forecast. It is intended to provide information to those who need considerable lead time to prepare for the event.